Aracaju, Brazil

6:34 PM BRT on July 22, 2014 (GMT -0300)
Santa Maria (SBAR) Elev 30 ft | 10.98 °S, 37.07 °W | Change Station

Current weather conditions updated 34 minutes ago

Mostly Cloudy
Mostly Cloudy
79 °F
Feels Like 79 °F
N
14
Wind Variable Wind from ESE

Tomorrow is forecast to be Cooler than today. Chance of showers tomorrow night.

Today
High -- | Low -- °F
--% Chance of Precip.
Yesterday
High -- | Low -- °F
Precip. -- in
5:47 AM 5:22 PM
Waning Crescent, 15% visible
Pressure 30.09 in
Visibility 6.2 miles
Clouds Scattered Clouds 1700 ft
Mostly Cloudy 10000 ft
Dew Point 63 °F
Humidity 57%
Rainfall 0.00 in
Snow Depth Not available.
UV 0 out of 12
Pollen Not available.
Air Quality Not available.
Flu Activity Not available.
METAR SBAR 222100Z 12012KT 9999 SCT017 BKN100 26/17 Q1019

More Conditions Fewer Conditions

Pressure 30.09 in
Visibility 6.2 miles
Clouds Scattered Clouds 1700 ft
Mostly Cloudy 10000 ft
Dew Point 63 °F
Humidity 57%
Rainfall 0.00 in
Snow Depth Not available.
UV 0 out of 12
Pollen Not available.
Air Quality Not available.
Flu Activity Not available.
METAR SBAR 222100Z 12012KT 9999 SCT017 BKN100 26/17 Q1019

More Conditions Fewer Conditions

10-Day Weather Forecast

Almanac

Astronomy

Jul. 22, 2014 Rise Set
Actual Time 5:47 AM BRT 5:22 PM BRT
Civil Twilight 5:24 AM BRT 5:44 PM BRT
Nautical Twilight 4:59 AM BRT 6:10 PM BRT
Astronomical Twilight 4:33 AM BRT 6:36 PM BRT
Moon 2:04 AM BRT 1:58 PM BRT
Length of Visible Light 12h 19m
Length of Day
11h 34m
Tomorrow will be 0m 20s longer.
Waning Crescent, 15% of the Moon is Illuminated
Today
Waning Crescent
Jul 26
New
Aug 3
First Quarter
Aug 10
Full
Aug 17
Last Quarter

Today's Extremes

Country Highs Country Lows

Community

WunderPhotos

Upload Photos

1,736,360 photos uploaded!

Nearby

Snow Depth

Not available.

Earthquake Activity

City Distance Mag. Time & Date
No recent earthquake activity has been reported nearby.
Minimum magnitude displayed is 2.5.

Coastal Water Temperatures

Place Temperature
No Stations Reporting

Nearby Weather Stations

There are no personal weather stations in this area.